Terminal Aerodrome Forecast
Issued by NWS

Home | Current Version | Previous Version | Text Only | Print | Product List | Glossary On
Versions: 1 2 3 4 5 6 7 8 9 10 11 12 13 14 15
000
FTUS46 KSEW 060700 AAA
TAFOLM
TAF AMD
KOLM 060706Z 0607/0706 VRB03KT P6SM BKN015 BKN040
     FM061800 26006KT P6SM SCT040
     FM062200 30007KT P6SM VCSH BKN040
     FM070400 00000KT P6SM SKC=

USA.gov is the U.S. government's official web portal to all federal, state and local government web resources and services.